»·PEaware :: DAL919 KSAN-KLAX

DAL919 :: KSAN-KLAX

FLIGHT INFORMATION

Flight Status: Arrived
Operator:
Delta Air Lines
More flights by this operator :: More flights under this callsign
Pilot: Chandler H. (20598)
Aircraft: AIRBUS A320
(A320)
More flights by this aircraft type
Origin: KSAN San Diego Intl-Lindbergh
United States
Destination: KLAX Los Angeles Intl
United States
More flights between these airports :: More routes between these airports
Route: CWARD2 SLI
File this flight plan on PilotEdge
Remarks:
Altitude:
(Current/Filed)
10,000ft
Speed:
(Current/Filed)
400kts
Departed: 18-Nov-18 04:57 PM
Arrived: 18-Nov-18 05:29 PM
Distance/Time
Traveled:
94nm/0:32
Distance/Time
To Go:
Arrived

Flight Plot

Page will automatically refresh every two minutes.

Flight plan parsing failed; only flown route is shown


Map Options




Map Legend


Flown Route
Filed Route
Departure Airport
Arrival Airport
Navaid (VOR, NDB)
Fix

Horizontal Profiles

Position Reports

Time Latitude Longitude Heading Altitude Ground
Speed
18-Nov-18 16:48 32.733414 -117.200771 264 19ft 0kts
18-Nov-18 16:49 32.733414 -117.200771 264 19ft 0kts
18-Nov-18 16:50 32.733414 -117.200771 264 19ft 0kts
18-Nov-18 16:51 32.733414 -117.200771 264 19ft 0kts
18-Nov-18 16:52 32.733430 -117.200584 263 19ft 2kts
18-Nov-18 16:53 32.733386 -117.199947 322 19ft 2kts
18-Nov-18 16:54 32.733125 -117.199902 13 19ft 0kts
18-Nov-18 16:55 32.734542 -117.199471 33 19ft 11kts
18-Nov-18 16:56 32.733855 -117.195140 105 22ft 14kts
18-Nov-18 16:57 32.732486 -117.189509 105 21ft 21kts
18-Nov-18 16:58 32.730707 -117.182134 106 19ft 16kts
18-Nov-18 16:59 32.731716 -117.182084 286 19ft 35kts
18-Nov-18 17:00 32.748528 -117.230163 305 2266ft 212kts
18-Nov-18 17:01 32.786210 -117.295261 303 5635ft 268kts
18-Nov-18 17:02 32.831865 -117.368275 306 9276ft 285kts
18-Nov-18 17:03 32.880652 -117.444057 306 9993ft 290kts
18-Nov-18 17:04 32.929650 -117.520316 306 10003ft 290kts
18-Nov-18 17:05 32.978481 -117.596439 306 10009ft 288kts
18-Nov-18 17:06 33.026704 -117.671751 306 10008ft 286kts
18-Nov-18 17:07 33.077928 -117.744006 319 10008ft 286kts
18-Nov-18 17:08 33.137751 -117.804727 319 10007ft 285kts
18-Nov-18 17:09 33.199643 -117.862626 340 10010ft 287kts
18-Nov-18 17:10 33.277330 -117.882659 347 10015ft 287kts
18-Nov-18 17:11 33.355049 -117.902055 347 10013ft 289kts
18-Nov-18 17:12 33.432122 -117.926761 342 9883ft 286kts
18-Nov-18 17:13 33.507359 -117.954099 342 8380ft 283kts
18-Nov-18 17:14 33.581814 -117.981198 342 7056ft 278kts
18-Nov-18 17:15 33.656073 -118.008245 342 7006ft 279kts
18-Nov-18 17:16 33.729821 -118.035170 342 7005ft 279kts
18-Nov-18 17:17 33.802543 -118.066352 332 7004ft 279kts
18-Nov-18 17:18 33.871500 -118.108300 332 7001ft 278kts
18-Nov-18 17:19 33.940552 -118.150420 330 7003ft 278kts
18-Nov-18 17:20 33.964195 -118.229493 247 5648ft 270kts
18-Nov-18 17:21 33.905441 -118.253626 139 3593ft 259kts
18-Nov-18 17:22 33.898474 -118.179310 82 3511ft 230kts
18-Nov-18 17:23 33.907303 -118.103107 82 3501ft 228kts
18-Nov-18 17:24 33.920598 -118.029336 47 3500ft 229kts
18-Nov-18 17:25 33.969227 -118.045281 285 3508ft 222kts
18-Nov-18 17:26 33.966707 -118.118517 262 3507ft 222kts
18-Nov-18 17:27 33.957412 -118.191744 261 3176ft 216kts
18-Nov-18 17:28 33.950524 -118.256263 262 2171ft 167kts
18-Nov-18 17:29 33.945358 -118.305918 263 1370ft 140kts
18-Nov-18 17:30 33.940572 -118.352048 263 640ft 138kts
18-Nov-18 17:31 33.936037 -118.395767 264 115ft 88kts
18-Nov-18 17:32 33.935668 -118.405673 295 130ft 0kts
18-Nov-18 17:33 33.935668 -118.405673 295 130ft 0kts
18-Nov-18 17:34 33.936413 -118.408888 335 133ft 13kts
18-Nov-18 17:35 33.937532 -118.409066 352 134ft 0kts
18-Nov-18 17:36 33.937876 -118.409119 352 133ft 10kts
18-Nov-18 17:37 33.939059 -118.405341 83 130ft 18kts
18-Nov-18 17:38 33.939948 -118.398258 50 120ft 7kts
18-Nov-18 17:39 33.940375 -118.397598 52 119ft 0kts

Navigation Log

Ident Type
Flight plan parsing failed, navigation log unavailable